This is the latest recevied weather packets stored in our database for station/object N5MDT. If no packets are shown the sender has not sent any weather packets the latest 10 day(s).
| Time | Temp. | Humidity | Pressure | Rain* | Wind** | Luminosity | Snow |
|---|---|---|---|---|---|---|---|
| 1777499903 | 30.56° C | 69% | 1010.4 hPa | 0 mm | - | - | - |
| 1777499304 | 30.56° C | 69% | 1010.5 hPa | 0 mm | - | - | - |
| 1777498703 | 30.56° C | 68% | 1010.9 hPa | 0 mm | - | - | - |
| 1777498103 | 30.56° C | 69% | 1011 hPa | 0 mm | - | - | - |
| 1777496303 | 31.11° C | 67% | 1011 hPa | 0 mm | - | - | - |
| 1777494503 | 30.56° C | 70% | 1010.8 hPa | 0 mm | - | - | - |
| 1777493903 | 30.56° C | 69% | 1010.7 hPa | 0 mm | - | - | - |
| 1777493303 | 30.56° C | 68% | 1010.9 hPa | 0 mm | - | - | - |
| 1777492703 | 30.56° C | 69% | 1011.1 hPa | 0 mm | - | - | - |
| 1777492103 | 30.56° C | 70% | 1011.4 hPa | 0 mm | - | - | - |
| 1777491503 | 30° C | 72% | 1011.5 hPa | 0 mm | - | - | - |
| 1777490903 | 29.44° C | 72% | 1011.5 hPa | 0 mm | - | - | - |
| 1777490302 | 28.89° C | 74% | 1011.7 hPa | 0 mm | - | - | - |
| 1777489703 | 28.89° C | 74% | 1012 hPa | 0 mm | - | - | - |
| 1777489102 | 28.33° C | 74% | 1012.3 hPa | 0 mm | - | - | - |
| 1777487902 | 28.33° C | 75% | 1012.7 hPa | 0 mm | - | - | - |
| 1777487302 | 28.33° C | 75% | 1013 hPa | 0 mm | - | - | - |
| 1777486702 | 28.33° C | 75% | 1013.1 hPa | 0 mm | - | - | - |
| 1777486102 | 28.33° C | 75% | 1013.3 hPa | 0 mm | - | - | - |
| 1777485502 | 28.33° C | 75% | 1013.4 hPa | 0 mm | - | - | - |
| 1777484302 | 28.33° C | 75% | 1013.8 hPa | 0 mm | - | - | - |
| 1777483702 | 28.33° C | 76% | 1013.9 hPa | 0 mm | - | - | - |
| 1777483102 | 28.33° C | 77% | 1014.1 hPa | 0 mm | - | - | - |
| 1777480701 | 27.78° C | 79% | 1014 hPa | 0 mm | - | - | - |
| 1777480101 | 27.78° C | 78% | 1014 hPa | 0 mm | - | - | - |
* Rain latest hour (hover to see other rain measurements)
** Current wind speed in m/s (hover to see current wind gust speed)